sensor_id;sensor_type;location;lat;lon;timestamp;P1;durP1;ratioP1;P2;durP2;ratioP2
44169;SDS011;29836;52.286;9.576;2023-07-30T00:01:11;2.33;;;1.50;;
44169;SDS011;29836;52.286;9.576;2023-07-30T00:03:37;2.42;;;1.52;;
44169;SDS011;29836;52.286;9.576;2023-07-30T00:06:02;3.40;;;1.52;;
44169;SDS011;29836;52.286;9.576;2023-07-30T00:08:28;2.45;;;1.80;;
44169;SDS011;29836;52.286;9.576;2023-07-30T00:10:54;2.50;;;1.90;;
44169;SDS011;29836;52.286;9.576;2023-07-30T00:13:22;2.65;;;1.67;;
44169;SDS011;29836;52.286;9.576;2023-07-30T00:15:48;2.65;;;1.63;;
44169;SDS011;29836;52.286;9.576;2023-07-30T00:18:14;2.78;;;1.67;;
44169;SDS011;29836;52.286;9.576;2023-07-30T00:20:40;5.93;;;1.80;;
44169;SDS011;29836;52.286;9.576;2023-07-30T00:23:06;2.88;;;1.65;;
44169;SDS011;29836;52.286;9.576;2023-07-30T00:25:31;5.35;;;1.73;;
44169;SDS011;29836;52.286;9.576;2023-07-30T00:27:57;2.78;;;1.70;;
44169;SDS011;29836;52.286;9.576;2023-07-30T00:30:22;3.42;;;2.08;;
44169;SDS011;29836;52.286;9.576;2023-07-30T00:32:48;3.03;;;1.70;;
44169;SDS011;29836;52.286;9.576;2023-07-30T00:35:14;3.10;;;1.75;;
44169;SDS011;29836;52.286;9.576;2023-07-30T00:37:39;2.58;;;1.77;;
44169;SDS011;29836;52.286;9.576;2023-07-30T00:40:05;2.67;;;1.83;;
44169;SDS011;29836;52.286;9.576;2023-07-30T00:42:31;4.18;;;2.50;;
44169;SDS011;29836;52.286;9.576;2023-07-30T00:44:57;3.95;;;2.47;;
44169;SDS011;29836;52.286;9.576;2023-07-30T00:47:22;4.35;;;2.40;;
44169;SDS011;29836;52.286;9.576;2023-07-30T00:49:49;3.55;;;2.50;;
44169;SDS011;29836;52.286;9.576;2023-07-30T00:52:18;4.30;;;2.40;;
44169;SDS011;29836;52.286;9.576;2023-07-30T00:54:46;3.60;;;2.47;;
44169;SDS011;29836;52.286;9.576;2023-07-30T00:57:13;4.55;;;2.85;;
44169;SDS011;29836;52.286;9.576;2023-07-30T00:59:39;4.75;;;3.03;;
44169;SDS011;29836;52.286;9.576;2023-07-30T01:02:05;5.25;;;2.58;;
44169;SDS011;29836;52.286;9.576;2023-07-30T01:04:31;5.20;;;2.70;;
44169;SDS011;29836;52.286;9.576;2023-07-30T01:06:57;3.47;;;2.50;;
44169;SDS011;29836;52.286;9.576;2023-07-30T01:09:22;4.72;;;2.50;;
44169;SDS011;29836;52.286;9.576;2023-07-30T01:11:49;3.67;;;2.67;;
44169;SDS011;29836;52.286;9.576;2023-07-30T01:14:16;3.40;;;2.40;;
44169;SDS011;29836;52.286;9.576;2023-07-30T01:16:44;4.22;;;2.45;;
44169;SDS011;29836;52.286;9.576;2023-07-30T01:19:09;4.47;;;2.70;;
44169;SDS011;29836;52.286;9.576;2023-07-30T01:21:35;6.43;;;3.10;;
44169;SDS011;29836;52.286;9.576;2023-07-30T01:24:01;6.80;;;3.25;;
44169;SDS011;29836;52.286;9.576;2023-07-30T01:26:27;3.05;;;2.58;;
44169;SDS011;29836;52.286;9.576;2023-07-30T01:29:07;6.88;;;3.25;;
44169;SDS011;29836;52.286;9.576;2023-07-30T01:31:39;5.30;;;2.78;;
44169;SDS011;29836;52.286;9.576;2023-07-30T01:34:06;4.28;;;2.70;;
44169;SDS011;29836;52.286;9.576;2023-07-30T01:36:33;7.28;;;2.45;;
44169;SDS011;29836;52.286;9.576;2023-07-30T01:39:00;5.18;;;2.90;;
44169;SDS011;29836;52.286;9.576;2023-07-30T01:41:27;3.60;;;2.70;;
44169;SDS011;29836;52.286;9.576;2023-07-30T01:43:53;5.30;;;2.83;;
44169;SDS011;29836;52.286;9.576;2023-07-30T01:46:19;8.07;;;3.00;;
44169;SDS011;29836;52.286;9.576;2023-07-30T01:48:44;4.45;;;2.92;;
44169;SDS011;29836;52.286;9.576;2023-07-30T01:51:10;4.88;;;2.50;;
44169;SDS011;29836;52.286;9.576;2023-07-30T01:53:35;4.43;;;2.63;;
44169;SDS011;29836;52.286;9.576;2023-07-30T01:56:01;6.15;;;2.88;;
44169;SDS011;29836;52.286;9.576;2023-07-30T01:58:26;7.90;;;3.03;;
44169;SDS011;29836;52.286;9.576;2023-07-30T02:00:52;5.20;;;3.20;;
44169;SDS011;29836;52.286;9.576;2023-07-30T02:03:17;4.35;;;2.75;;
44169;SDS011;29836;52.286;9.576;2023-07-30T02:05:43;6.63;;;2.90;;
44169;SDS011;29836;52.286;9.576;2023-07-30T02:08:08;4.85;;;2.60;;
44169;SDS011;29836;52.286;9.576;2023-07-30T02:10:34;4.32;;;2.80;;
44169;SDS011;29836;52.286;9.576;2023-07-30T02:12:59;7.15;;;2.80;;
44169;SDS011;29836;52.286;9.576;2023-07-30T02:15:25;7.88;;;2.45;;
44169;SDS011;29836;52.286;9.576;2023-07-30T02:17:50;4.57;;;2.60;;
44169;SDS011;29836;52.286;9.576;2023-07-30T02:20:16;4.18;;;2.67;;
44169;SDS011;29836;52.286;9.576;2023-07-30T02:22:41;5.93;;;2.70;;
44169;SDS011;29836;52.286;9.576;2023-07-30T02:25:07;4.97;;;2.40;;
44169;SDS011;29836;52.286;9.576;2023-07-30T02:27:33;6.28;;;2.53;;
44169;SDS011;29836;52.286;9.576;2023-07-30T02:29:58;4.82;;;2.47;;
44169;SDS011;29836;52.286;9.576;2023-07-30T02:32:24;7.30;;;2.60;;
44169;SDS011;29836;52.286;9.576;2023-07-30T02:34:49;6.15;;;2.72;;
44169;SDS011;29836;52.286;9.576;2023-07-30T02:37:15;5.45;;;2.33;;
44169;SDS011;29836;52.286;9.576;2023-07-30T02:39:40;5.13;;;2.35;;
44169;SDS011;29836;52.286;9.576;2023-07-30T02:42:06;5.18;;;2.22;;
44169;SDS011;29836;52.286;9.576;2023-07-30T02:44:31;4.32;;;2.22;;
44169;SDS011;29836;52.286;9.576;2023-07-30T02:46:57;6.43;;;2.42;;
44169;SDS011;29836;52.286;9.576;2023-07-30T02:49:22;5.47;;;2.20;;
44169;SDS011;29836;52.286;9.576;2023-07-30T02:51:48;6.95;;;2.38;;
44169;SDS011;29836;52.286;9.576;2023-07-30T02:54:14;6.25;;;2.10;;
44169;SDS011;29836;52.286;9.576;2023-07-30T02:56:45;7.22;;;2.45;;
44169;SDS011;29836;52.286;9.576;2023-07-30T02:59:11;6.57;;;2.55;;
44169;SDS011;29836;52.286;9.576;2023-07-30T03:01:37;5.97;;;2.53;;
44169;SDS011;29836;52.286;9.576;2023-07-30T03:04:03;6.57;;;2.60;;
44169;SDS011;29836;52.286;9.576;2023-07-30T03:06:29;6.68;;;2.30;;
44169;SDS011;29836;52.286;9.576;2023-07-30T03:08:55;5.22;;;2.42;;
44169;SDS011;29836;52.286;9.576;2023-07-30T03:11:21;6.90;;;2.58;;
44169;SDS011;29836;52.286;9.576;2023-07-30T03:13:47;4.65;;;2.40;;
44169;SDS011;29836;52.286;9.576;2023-07-30T03:16:13;5.40;;;2.35;;
44169;SDS011;29836;52.286;9.576;2023-07-30T03:18:38;5.57;;;2.78;;
44169;SDS011;29836;52.286;9.576;2023-07-30T03:21:04;9.65;;;3.00;;
44169;SDS011;29836;52.286;9.576;2023-07-30T03:23:29;5.38;;;2.17;;
44169;SDS011;29836;52.286;9.576;2023-07-30T03:25:55;5.22;;;2.42;;
44169;SDS011;29836;52.286;9.576;2023-07-30T03:28:20;5.95;;;2.35;;
44169;SDS011;29836;52.286;9.576;2023-07-30T03:30:46;7.13;;;2.90;;
44169;SDS011;29836;52.286;9.576;2023-07-30T03:33:11;7.75;;;2.95;;
44169;SDS011;29836;52.286;9.576;2023-07-30T03:35:37;5.88;;;2.28;;
44169;SDS011;29836;52.286;9.576;2023-07-30T03:38:02;9.07;;;2.88;;
44169;SDS011;29836;52.286;9.576;2023-07-30T03:40:28;6.03;;;2.50;;
44169;SDS011;29836;52.286;9.576;2023-07-30T03:42:54;7.72;;;2.90;;
44169;SDS011;29836;52.286;9.576;2023-07-30T03:45:19;6.85;;;2.70;;
44169;SDS011;29836;52.286;9.576;2023-07-30T03:47:45;6.43;;;2.47;;
44169;SDS011;29836;52.286;9.576;2023-07-30T03:50:10;7.47;;;2.85;;
44169;SDS011;29836;52.286;9.576;2023-07-30T03:52:36;7.32;;;2.63;;
44169;SDS011;29836;52.286;9.576;2023-07-30T03:55:01;8.02;;;2.90;;
44169;SDS011;29836;52.286;9.576;2023-07-30T03:57:27;6.63;;;2.80;;
44169;SDS011;29836;52.286;9.576;2023-07-30T03:59:53;5.60;;;2.55;;
44169;SDS011;29836;52.286;9.576;2023-07-30T04:02:18;5.82;;;2.65;;
44169;SDS011;29836;52.286;9.576;2023-07-30T04:04:44;6.38;;;3.10;;
44169;SDS011;29836;52.286;9.576;2023-07-30T04:07:11;8.02;;;2.60;;
44169;SDS011;29836;52.286;9.576;2023-07-30T04:09:36;8.02;;;2.67;;
44169;SDS011;29836;52.286;9.576;2023-07-30T04:12:02;8.35;;;2.88;;
44169;SDS011;29836;52.286;9.576;2023-07-30T04:14:28;5.30;;;2.67;;
44169;SDS011;29836;52.286;9.576;2023-07-30T04:16:53;6.78;;;2.85;;
44169;SDS011;29836;52.286;9.576;2023-07-30T04:19:19;6.45;;;3.35;;
44169;SDS011;29836;52.286;9.576;2023-07-30T04:21:44;11.32;;;3.90;;
44169;SDS011;29836;52.286;9.576;2023-07-30T04:24:10;10.00;;;4.15;;
44169;SDS011;29836;52.286;9.576;2023-07-30T04:26:35;8.60;;;4.43;;
44169;SDS011;29836;52.286;9.576;2023-07-30T04:29:01;10.27;;;4.47;;
44169;SDS011;29836;52.286;9.576;2023-07-30T04:31:26;8.70;;;4.88;;
44169;SDS011;29836;52.286;9.576;2023-07-30T04:33:52;8.38;;;5.07;;
44169;SDS011;29836;52.286;9.576;2023-07-30T04:36:17;12.25;;;5.03;;
44169;SDS011;29836;52.286;9.576;2023-07-30T04:38:43;10.95;;;4.97;;
44169;SDS011;29836;52.286;9.576;2023-07-30T04:41:09;9.20;;;4.72;;
44169;SDS011;29836;52.286;9.576;2023-07-30T04:43:34;8.93;;;4.47;;
44169;SDS011;29836;52.286;9.576;2023-07-30T04:46:00;7.30;;;4.00;;
44169;SDS011;29836;52.286;9.576;2023-07-30T04:48:25;9.00;;;4.53;;
44169;SDS011;29836;52.286;9.576;2023-07-30T04:50:51;8.20;;;4.05;;
44169;SDS011;29836;52.286;9.576;2023-07-30T04:53:16;11.70;;;4.53;;
44169;SDS011;29836;52.286;9.576;2023-07-30T04:55:43;6.47;;;3.67;;
44169;SDS011;29836;52.286;9.576;2023-07-30T04:58:08;7.60;;;4.28;;
44169;SDS011;29836;52.286;9.576;2023-07-30T05:00:34;10.95;;;5.15;;
44169;SDS011;29836;52.286;9.576;2023-07-30T05:03:00;9.10;;;5.20;;
44169;SDS011;29836;52.286;9.576;2023-07-30T05:05:25;9.98;;;5.10;;
44169;SDS011;29836;52.286;9.576;2023-07-30T05:07:51;10.27;;;5.50;;
44169;SDS011;29836;52.286;9.576;2023-07-30T05:10:16;10.00;;;5.28;;
44169;SDS011;29836;52.286;9.576;2023-07-30T05:12:42;8.85;;;4.97;;
44169;SDS011;29836;52.286;9.576;2023-07-30T05:15:07;10.73;;;5.10;;
44169;SDS011;29836;52.286;9.576;2023-07-30T05:17:33;12.02;;;5.10;;
44169;SDS011;29836;52.286;9.576;2023-07-30T05:19:59;8.75;;;4.43;;
44169;SDS011;29836;52.286;9.576;2023-07-30T05:22:24;9.88;;;4.63;;
44169;SDS011;29836;52.286;9.576;2023-07-30T05:24:50;8.10;;;4.63;;
44169;SDS011;29836;52.286;9.576;2023-07-30T05:27:16;9.30;;;4.80;;
44169;SDS011;29836;52.286;9.576;2023-07-30T05:29:41;11.13;;;4.90;;
44169;SDS011;29836;52.286;9.576;2023-07-30T05:32:07;8.65;;;4.47;;
44169;SDS011;29836;52.286;9.576;2023-07-30T05:34:33;9.10;;;4.90;;
44169;SDS011;29836;52.286;9.576;2023-07-30T05:36:59;9.88;;;4.82;;
44169;SDS011;29836;52.286;9.576;2023-07-30T05:39:24;6.82;;;4.40;;
44169;SDS011;29836;52.286;9.576;2023-07-30T05:41:51;8.52;;;4.38;;
44169;SDS011;29836;52.286;9.576;2023-07-30T05:44:16;8.48;;;4.57;;
44169;SDS011;29836;52.286;9.576;2023-07-30T05:46:42;8.48;;;4.30;;
44169;SDS011;29836;52.286;9.576;2023-07-30T05:49:08;9.23;;;4.45;;
44169;SDS011;29836;52.286;9.576;2023-07-30T05:51:33;9.30;;;4.30;;
44169;SDS011;29836;52.286;9.576;2023-07-30T05:53:59;8.23;;;4.18;;
44169;SDS011;29836;52.286;9.576;2023-07-30T05:56:24;6.28;;;4.25;;
44169;SDS011;29836;52.286;9.576;2023-07-30T05:58:50;7.55;;;3.75;;
44169;SDS011;29836;52.286;9.576;2023-07-30T06:01:16;10.73;;;3.72;;
44169;SDS011;29836;52.286;9.576;2023-07-30T06:03:42;9.45;;;3.63;;
44169;SDS011;29836;52.286;9.576;2023-07-30T06:06:07;7.18;;;3.55;;
44169;SDS011;29836;52.286;9.576;2023-07-30T06:08:33;9.35;;;3.53;;
44169;SDS011;29836;52.286;9.576;2023-07-30T06:11:07;7.60;;;3.30;;
44169;SDS011;29836;52.286;9.576;2023-07-30T06:13:33;8.30;;;3.40;;
44169;SDS011;29836;52.286;9.576;2023-07-30T06:15:59;8.45;;;3.05;;
44169;SDS011;29836;52.286;9.576;2023-07-30T06:18:24;6.15;;;2.80;;
44169;SDS011;29836;52.286;9.576;2023-07-30T06:20:50;6.60;;;2.58;;
44169;SDS011;29836;52.286;9.576;2023-07-30T06:23:15;5.00;;;2.63;;
44169;SDS011;29836;52.286;9.576;2023-07-30T06:25:41;5.38;;;2.78;;
44169;SDS011;29836;52.286;9.576;2023-07-30T06:28:06;7.93;;;2.42;;
44169;SDS011;29836;52.286;9.576;2023-07-30T06:30:32;7.28;;;2.28;;
44169;SDS011;29836;52.286;9.576;2023-07-30T06:32:57;5.72;;;2.13;;
44169;SDS011;29836;52.286;9.576;2023-07-30T06:35:23;4.75;;;1.80;;
44169;SDS011;29836;52.286;9.576;2023-07-30T06:37:50;7.95;;;2.00;;
44169;SDS011;29836;52.286;9.576;2023-07-30T06:40:15;6.13;;;2.00;;
44169;SDS011;29836;52.286;9.576;2023-07-30T06:42:41;6.30;;;1.83;;
44169;SDS011;29836;52.286;9.576;2023-07-30T06:45:07;4.10;;;2.08;;
44169;SDS011;29836;52.286;9.576;2023-07-30T06:47:33;6.45;;;1.70;;
44169;SDS011;29836;52.286;9.576;2023-07-30T06:49:58;4.85;;;1.77;;
44169;SDS011;29836;52.286;9.576;2023-07-30T06:52:24;3.85;;;1.73;;
44169;SDS011;29836;52.286;9.576;2023-07-30T06:54:50;4.38;;;1.90;;
44169;SDS011;29836;52.286;9.576;2023-07-30T06:57:15;4.13;;;1.67;;
44169;SDS011;29836;52.286;9.576;2023-07-30T06:59:41;4.60;;;2.03;;
44169;SDS011;29836;52.286;9.576;2023-07-30T07:02:07;5.75;;;1.80;;
44169;SDS011;29836;52.286;9.576;2023-07-30T07:04:32;4.10;;;1.90;;
44169;SDS011;29836;52.286;9.576;2023-07-30T07:06:58;5.97;;;1.92;;
44169;SDS011;29836;52.286;9.576;2023-07-30T07:09:23;4.72;;;2.05;;
44169;SDS011;29836;52.286;9.576;2023-07-30T07:11:49;4.07;;;1.60;;
44169;SDS011;29836;52.286;9.576;2023-07-30T07:14:14;6.90;;;2.17;;
44169;SDS011;29836;52.286;9.576;2023-07-30T07:16:40;4.68;;;2.00;;
44169;SDS011;29836;52.286;9.576;2023-07-30T07:19:06;4.50;;;1.88;;
44169;SDS011;29836;52.286;9.576;2023-07-30T07:21:31;4.45;;;2.03;;
44169;SDS011;29836;52.286;9.576;2023-07-30T07:23:57;5.78;;;2.00;;
44169;SDS011;29836;52.286;9.576;2023-07-30T07:26:22;4.90;;;2.08;;
44169;SDS011;29836;52.286;9.576;2023-07-30T07:28:48;3.95;;;2.00;;
44169;SDS011;29836;52.286;9.576;2023-07-30T07:31:13;4.60;;;2.00;;
44169;SDS011;29836;52.286;9.576;2023-07-30T07:33:39;5.03;;;1.83;;
44169;SDS011;29836;52.286;9.576;2023-07-30T07:36:05;9.55;;;2.40;;
44169;SDS011;29836;52.286;9.576;2023-07-30T07:38:32;5.95;;;2.00;;
44169;SDS011;29836;52.286;9.576;2023-07-30T07:40:58;3.58;;;1.83;;
44169;SDS011;29836;52.286;9.576;2023-07-30T07:43:25;5.75;;;2.03;;
44169;SDS011;29836;52.286;9.576;2023-07-30T07:45:51;6.53;;;1.85;;
44169;SDS011;29836;52.286;9.576;2023-07-30T07:48:17;7.95;;;2.00;;
44169;SDS011;29836;52.286;9.576;2023-07-30T07:50:42;7.35;;;2.35;;
44169;SDS011;29836;52.286;9.576;2023-07-30T07:53:08;4.65;;;1.80;;
44169;SDS011;29836;52.286;9.576;2023-07-30T07:55:33;7.63;;;2.35;;
44169;SDS011;29836;52.286;9.576;2023-07-30T07:57:59;4.95;;;2.20;;
44169;SDS011;29836;52.286;9.576;2023-07-30T08:00:24;6.38;;;2.42;;
44169;SDS011;29836;52.286;9.576;2023-07-30T08:02:50;5.78;;;2.33;;
44169;SDS011;29836;52.286;9.576;2023-07-30T08:05:15;6.78;;;2.50;;
44169;SDS011;29836;52.286;9.576;2023-07-30T08:07:41;7.72;;;2.50;;
44169;SDS011;29836;52.286;9.576;2023-07-30T08:10:10;8.15;;;2.60;;
44169;SDS011;29836;52.286;9.576;2023-07-30T08:12:36;6.13;;;2.72;;
44169;SDS011;29836;52.286;9.576;2023-07-30T08:15:01;8.57;;;2.80;;
44169;SDS011;29836;52.286;9.576;2023-07-30T08:17:27;5.90;;;2.72;;
44169;SDS011;29836;52.286;9.576;2023-07-30T08:19:53;6.03;;;2.72;;
44169;SDS011;29836;52.286;9.576;2023-07-30T08:22:18;4.75;;;2.50;;
44169;SDS011;29836;52.286;9.576;2023-07-30T08:24:44;7.38;;;2.72;;
44169;SDS011;29836;52.286;9.576;2023-07-30T08:27:09;7.15;;;2.80;;
44169;SDS011;29836;52.286;9.576;2023-07-30T08:29:35;7.57;;;2.63;;
44169;SDS011;29836;52.286;9.576;2023-07-30T08:32:00;6.65;;;2.50;;
44169;SDS011;29836;52.286;9.576;2023-07-30T08:34:26;6.07;;;2.78;;
44169;SDS011;29836;52.286;9.576;2023-07-30T08:36:51;6.72;;;3.00;;
44169;SDS011;29836;52.286;9.576;2023-07-30T08:39:17;7.00;;;3.08;;
44169;SDS011;29836;52.286;9.576;2023-07-30T08:41:43;6.05;;;3.42;;
44169;SDS011;29836;52.286;9.576;2023-07-30T08:44:09;6.07;;;3.42;;
44169;SDS011;29836;52.286;9.576;2023-07-30T08:46:35;9.10;;;4.18;;
44169;SDS011;29836;52.286;9.576;2023-07-30T08:49:00;8.05;;;3.75;;
44169;SDS011;29836;52.286;9.576;2023-07-30T08:51:26;7.47;;;3.78;;
44169;SDS011;29836;52.286;9.576;2023-07-30T08:53:52;8.02;;;4.00;;
44169;SDS011;29836;52.286;9.576;2023-07-30T08:56:19;6.60;;;3.78;;
44169;SDS011;29836;52.286;9.576;2023-07-30T08:58:44;7.32;;;4.28;;
44169;SDS011;29836;52.286;9.576;2023-07-30T09:01:12;8.07;;;4.15;;
44169;SDS011;29836;52.286;9.576;2023-07-30T09:03:41;6.80;;;3.85;;
44169;SDS011;29836;52.286;9.576;2023-07-30T09:06:07;8.48;;;4.10;;
44169;SDS011;29836;52.286;9.576;2023-07-30T09:08:33;6.70;;;4.32;;
44169;SDS011;29836;52.286;9.576;2023-07-30T09:11:08;7.80;;;3.63;;
44169;SDS011;29836;52.286;9.576;2023-07-30T09:13:38;6.38;;;3.45;;
44169;SDS011;29836;52.286;9.576;2023-07-30T09:16:08;6.35;;;3.20;;
44169;SDS011;29836;52.286;9.576;2023-07-30T09:18:44;8.90;;;3.22;;
44169;SDS011;29836;52.286;9.576;2023-07-30T09:21:11;7.60;;;2.97;;
44169;SDS011;29836;52.286;9.576;2023-07-30T09:23:44;7.57;;;3.42;;
44169;SDS011;29836;52.286;9.576;2023-07-30T09:26:12;5.80;;;2.60;;
44169;SDS011;29836;52.286;9.576;2023-07-30T09:28:39;7.75;;;2.72;;
44169;SDS011;29836;52.286;9.576;2023-07-30T09:31:06;8.23;;;3.25;;
44169;SDS011;29836;52.286;9.576;2023-07-30T09:33:33;7.15;;;2.97;;
44169;SDS011;29836;52.286;9.576;2023-07-30T09:36:02;6.40;;;3.13;;
44169;SDS011;29836;52.286;9.576;2023-07-30T09:38:29;5.03;;;3.03;;
44169;SDS011;29836;52.286;9.576;2023-07-30T09:41:01;6.80;;;3.20;;
44169;SDS011;29836;52.286;9.576;2023-07-30T09:43:33;8.15;;;3.65;;
44169;SDS011;29836;52.286;9.576;2023-07-30T09:46:03;8.98;;;3.58;;
44169;SDS011;29836;52.286;9.576;2023-07-30T09:48:30;9.77;;;3.60;;
44169;SDS011;29836;52.286;9.576;2023-07-30T09:50:59;7.72;;;3.63;;
44169;SDS011;29836;52.286;9.576;2023-07-30T09:53:28;7.25;;;4.10;;
44169;SDS011;29836;52.286;9.576;2023-07-30T09:55:55;7.50;;;4.18;;
44169;SDS011;29836;52.286;9.576;2023-07-30T09:58:20;8.93;;;4.30;;
44169;SDS011;29836;52.286;9.576;2023-07-30T10:00:46;8.35;;;4.13;;
44169;SDS011;29836;52.286;9.576;2023-07-30T10:03:15;9.18;;;4.72;;
44169;SDS011;29836;52.286;9.576;2023-07-30T10:05:41;10.75;;;4.97;;
44169;SDS011;29836;52.286;9.576;2023-07-30T10:08:12;8.02;;;4.60;;
44169;SDS011;29836;52.286;9.576;2023-07-30T10:10:44;9.25;;;5.00;;
44169;SDS011;29836;52.286;9.576;2023-07-30T10:13:10;9.18;;;5.47;;
44169;SDS011;29836;52.286;9.576;2023-07-30T10:15:37;9.57;;;5.20;;
44169;SDS011;29836;52.286;9.576;2023-07-30T10:18:03;10.55;;;5.80;;
44169;SDS011;29836;52.286;9.576;2023-07-30T10:20:30;9.57;;;5.43;;
44169;SDS011;29836;52.286;9.576;2023-07-30T10:22:57;7.90;;;5.30;;
44169;SDS011;29836;52.286;9.576;2023-07-30T10:25:28;8.40;;;5.60;;
44169;SDS011;29836;52.286;9.576;2023-07-30T10:28:06;12.52;;;6.00;;
44169;SDS011;29836;52.286;9.576;2023-07-30T10:30:32;8.00;;;5.80;;
44169;SDS011;29836;52.286;9.576;2023-07-30T10:33:01;10.65;;;5.90;;
44169;SDS011;29836;52.286;9.576;2023-07-30T10:35:35;12.85;;;6.25;;
44169;SDS011;29836;52.286;9.576;2023-07-30T10:41:09;12.23;;;6.22;;
44169;SDS011;29836;52.286;9.576;2023-07-30T10:43:46;11.80;;;5.68;;
44169;SDS011;29836;52.286;9.576;2023-07-30T10:48:39;11.57;;;5.68;;
44169;SDS011;29836;52.286;9.576;2023-07-30T10:51:09;10.10;;;6.20;;
44169;SDS011;29836;52.286;9.576;2023-07-30T10:53:36;11.63;;;6.38;;
44169;SDS011;29836;52.286;9.576;2023-07-30T10:56:05;10.82;;;6.55;;
44169;SDS011;29836;52.286;9.576;2023-07-30T10:58:32;9.52;;;6.43;;
44169;SDS011;29836;52.286;9.576;2023-07-30T11:01:01;12.13;;;7.03;;
44169;SDS011;29836;52.286;9.576;2023-07-30T11:03:27;13.10;;;7.95;;
44169;SDS011;29836;52.286;9.576;2023-07-30T11:05:53;15.43;;;7.45;;
44169;SDS011;29836;52.286;9.576;2023-07-30T11:08:33;12.25;;;7.55;;
44169;SDS011;29836;52.286;9.576;2023-07-30T11:10:58;11.68;;;6.70;;
44169;SDS011;29836;52.286;9.576;2023-07-30T11:13:25;13.48;;;7.30;;
44169;SDS011;29836;52.286;9.576;2023-07-30T11:15:51;13.27;;;8.23;;
44169;SDS011;29836;52.286;9.576;2023-07-30T11:18:16;11.43;;;8.68;;
44169;SDS011;29836;52.286;9.576;2023-07-30T11:20:42;14.75;;;8.35;;
44169;SDS011;29836;52.286;9.576;2023-07-30T11:23:20;12.90;;;7.82;;
44169;SDS011;29836;52.286;9.576;2023-07-30T11:25:47;10.65;;;7.82;;
44169;SDS011;29836;52.286;9.576;2023-07-30T11:28:35;13.68;;;8.02;;
44169;SDS011;29836;52.286;9.576;2023-07-30T11:31:12;12.48;;;8.07;;
44169;SDS011;29836;52.286;9.576;2023-07-30T11:33:41;14.80;;;8.52;;
44169;SDS011;29836;52.286;9.576;2023-07-30T11:36:10;14.32;;;8.00;;
44169;SDS011;29836;52.286;9.576;2023-07-30T11:38:39;14.10;;;8.00;;
44169;SDS011;29836;52.286;9.576;2023-07-30T11:41:05;11.77;;;8.35;;
44169;SDS011;29836;52.286;9.576;2023-07-30T11:43:35;11.32;;;7.43;;
44169;SDS011;29836;52.286;9.576;2023-07-30T11:46:07;11.02;;;7.40;;
44169;SDS011;29836;52.286;9.576;2023-07-30T11:48:37;12.90;;;7.88;;
44169;SDS011;29836;52.286;9.576;2023-07-30T11:51:03;12.38;;;7.55;;
44169;SDS011;29836;52.286;9.576;2023-07-30T11:56:17;9.73;;;6.95;;
44169;SDS011;29836;52.286;9.576;2023-07-30T11:58:44;13.25;;;7.00;;
44169;SDS011;29836;52.286;9.576;2023-07-30T12:01:11;10.30;;;6.50;;
44169;SDS011;29836;52.286;9.576;2023-07-30T12:03:37;9.55;;;5.80;;
44169;SDS011;29836;52.286;9.576;2023-07-30T12:06:06;11.07;;;5.90;;
44169;SDS011;29836;52.286;9.576;2023-07-30T12:08:33;9.45;;;5.82;;
44169;SDS011;29836;52.286;9.576;2023-07-30T12:11:03;10.32;;;5.63;;
44169;SDS011;29836;52.286;9.576;2023-07-30T12:13:30;11.85;;;5.68;;
44169;SDS011;29836;52.286;9.576;2023-07-30T12:15:56;9.32;;;5.32;;
44169;SDS011;29836;52.286;9.576;2023-07-30T12:18:23;11.32;;;5.30;;
44169;SDS011;29836;52.286;9.576;2023-07-30T12:20:49;8.50;;;4.80;;
44169;SDS011;29836;52.286;9.576;2023-07-30T12:23:16;9.20;;;4.70;;
44169;SDS011;29836;52.286;9.576;2023-07-30T12:25:42;7.13;;;4.00;;
44169;SDS011;29836;52.286;9.576;2023-07-30T12:28:08;8.18;;;4.25;;
44169;SDS011;29836;52.286;9.576;2023-07-30T12:30:33;6.53;;;3.75;;
44169;SDS011;29836;52.286;9.576;2023-07-30T12:33:00;7.03;;;3.95;;
44169;SDS011;29836;52.286;9.576;2023-07-30T12:35:26;7.22;;;4.03;;
44169;SDS011;29836;52.286;9.576;2023-07-30T12:37:51;5.57;;;3.78;;
44169;SDS011;29836;52.286;9.576;2023-07-30T12:40:17;12.52;;;4.38;;
44169;SDS011;29836;52.286;9.576;2023-07-30T12:42:43;8.15;;;3.80;;
44169;SDS011;29836;52.286;9.576;2023-07-30T12:45:08;6.43;;;3.80;;
44169;SDS011;29836;52.286;9.576;2023-07-30T12:47:34;5.97;;;3.30;;
44169;SDS011;29836;52.286;9.576;2023-07-30T12:50:03;7.93;;;3.80;;
44169;SDS011;29836;52.286;9.576;2023-07-30T12:52:30;7.72;;;3.45;;
44169;SDS011;29836;52.286;9.576;2023-07-30T12:54:57;7.35;;;3.83;;
44169;SDS011;29836;52.286;9.576;2023-07-30T12:57:22;7.28;;;3.17;;
44169;SDS011;29836;52.286;9.576;2023-07-30T12:59:48;8.45;;;3.35;;
44169;SDS011;29836;52.286;9.576;2023-07-30T13:02:14;7.32;;;3.05;;
44169;SDS011;29836;52.286;9.576;2023-07-30T13:04:39;6.95;;;3.20;;
44169;SDS011;29836;52.286;9.576;2023-07-30T13:07:05;6.78;;;3.42;;
44169;SDS011;29836;52.286;9.576;2023-07-30T13:09:30;7.85;;;3.60;;
44169;SDS011;29836;52.286;9.576;2023-07-30T13:11:56;7.68;;;3.55;;
44169;SDS011;29836;52.286;9.576;2023-07-30T13:14:22;5.90;;;2.80;;
44169;SDS011;29836;52.286;9.576;2023-07-30T13:16:47;5.35;;;2.72;;
44169;SDS011;29836;52.286;9.576;2023-07-30T13:19:13;6.00;;;3.30;;
44169;SDS011;29836;52.286;9.576;2023-07-30T13:21:38;8.40;;;3.28;;
44169;SDS011;29836;52.286;9.576;2023-07-30T13:24:04;8.43;;;3.20;;
44169;SDS011;29836;52.286;9.576;2023-07-30T13:26:30;6.38;;;2.95;;
44169;SDS011;29836;52.286;9.576;2023-07-30T13:28:55;4.95;;;2.92;;
44169;SDS011;29836;52.286;9.576;2023-07-30T13:31:21;7.00;;;3.08;;
44169;SDS011;29836;52.286;9.576;2023-07-30T13:33:46;6.97;;;2.75;;
44169;SDS011;29836;52.286;9.576;2023-07-30T13:36:13;6.53;;;2.70;;
44169;SDS011;29836;52.286;9.576;2023-07-30T13:38:39;6.20;;;2.65;;
44169;SDS011;29836;52.286;9.576;2023-07-30T13:41:07;4.18;;;2.13;;
44169;SDS011;29836;52.286;9.576;2023-07-30T13:43:34;5.63;;;2.40;;
44169;SDS011;29836;52.286;9.576;2023-07-30T13:45:59;6.63;;;2.42;;
44169;SDS011;29836;52.286;9.576;2023-07-30T13:48:25;5.10;;;2.35;;
44169;SDS011;29836;52.286;9.576;2023-07-30T13:50:51;7.30;;;2.30;;
44169;SDS011;29836;52.286;9.576;2023-07-30T13:53:17;4.90;;;2.13;;
44169;SDS011;29836;52.286;9.576;2023-07-30T13:55:43;9.07;;;2.30;;
44169;SDS011;29836;52.286;9.576;2023-07-30T13:58:09;4.53;;;1.92;;
44169;SDS011;29836;52.286;9.576;2023-07-30T14:00:34;5.18;;;2.08;;
44169;SDS011;29836;52.286;9.576;2023-07-30T14:03:00;4.60;;;1.85;;
44169;SDS011;29836;52.286;9.576;2023-07-30T14:05:26;3.95;;;1.40;;
44169;SDS011;29836;52.286;9.576;2023-07-30T14:07:53;3.53;;;1.63;;
44169;SDS011;29836;52.286;9.576;2023-07-30T14:10:21;4.45;;;1.73;;
44169;SDS011;29836;52.286;9.576;2023-07-30T14:12:48;4.47;;;1.77;;
44169;SDS011;29836;52.286;9.576;2023-07-30T14:15:14;3.20;;;1.67;;
44169;SDS011;29836;52.286;9.576;2023-07-30T14:17:42;4.60;;;1.73;;
44169;SDS011;29836;52.286;9.576;2023-07-30T14:20:08;4.38;;;1.50;;
44169;SDS011;29836;52.286;9.576;2023-07-30T14:22:34;3.53;;;1.60;;
44169;SDS011;29836;52.286;9.576;2023-07-30T14:25:01;4.00;;;1.75;;
44169;SDS011;29836;52.286;9.576;2023-07-30T14:27:27;4.95;;;1.50;;
44169;SDS011;29836;52.286;9.576;2023-07-30T14:29:52;4.47;;;1.63;;
44169;SDS011;29836;52.286;9.576;2023-07-30T14:32:22;5.88;;;1.58;;
44169;SDS011;29836;52.286;9.576;2023-07-30T14:34:48;3.40;;;1.60;;
44169;SDS011;29836;52.286;9.576;2023-07-30T14:37:14;4.47;;;1.58;;
44169;SDS011;29836;52.286;9.576;2023-07-30T14:39:39;4.30;;;1.60;;
44169;SDS011;29836;52.286;9.576;2023-07-30T14:42:06;5.72;;;1.48;;
44169;SDS011;29836;52.286;9.576;2023-07-30T14:44:31;4.38;;;1.30;;
44169;SDS011;29836;52.286;9.576;2023-07-30T14:46:57;6.72;;;1.80;;
44169;SDS011;29836;52.286;9.576;2023-07-30T14:49:23;6.90;;;1.58;;